createdAt,value
2022-08-03T00:00:24.330Z,2.22
2022-08-03T00:02:51.541Z,1.35
2022-08-03T00:05:18.202Z,1.95
2022-08-03T00:07:44.953Z,1.50
2022-08-03T00:10:13.121Z,1.80
2022-08-03T00:12:39.856Z,2.13
2022-08-03T00:15:13.735Z,1.77
2022-08-03T00:17:52.334Z,1.60
2022-08-03T00:20:21.643Z,2.10
2022-08-03T00:22:48.754Z,2.03
2022-08-03T00:25:15.354Z,2.10
2022-08-03T00:27:42.122Z,2.15
2022-08-03T00:30:09.350Z,2.40
2022-08-03T00:32:35.987Z,1.65
2022-08-03T00:35:07.857Z,2.13
2022-08-03T00:37:40.908Z,2.00
2022-08-03T00:40:12.389Z,2.30
2022-08-03T00:42:52.332Z,1.63
2022-08-03T00:45:20.003Z,1.95
2022-08-03T00:47:46.768Z,2.05
2022-08-03T00:50:14.107Z,2.10
2022-08-03T00:52:40.835Z,1.88
2022-08-03T00:55:11.104Z,1.52
2022-08-03T00:57:38.127Z,1.90
2022-08-03T01:00:08.766Z,1.60
2022-08-03T01:02:36.194Z,1.90
2022-08-03T01:05:02.866Z,1.52
2022-08-03T01:07:53.687Z,1.75
2022-08-03T01:10:48.033Z,1.83
2022-08-03T01:14:02.015Z,1.95
2022-08-03T01:16:38.235Z,1.70
2022-08-03T01:19:30.474Z,1.60
2022-08-03T01:22:18.599Z,1.67
2022-08-03T01:24:55.698Z,1.58
2022-08-03T01:27:50.922Z,2.38
2022-08-03T01:30:17.667Z,2.60
2022-08-03T01:33:01.978Z,1.83
2022-08-03T01:35:39.705Z,1.88
2022-08-03T01:38:11.848Z,1.77
2022-08-03T01:40:40.901Z,1.80
2022-08-03T01:43:09.458Z,1.75
2022-08-03T01:45:37.122Z,1.70
2022-08-03T01:48:04.267Z,1.48
2022-08-03T01:50:32.095Z,2.10
2022-08-03T01:52:59.382Z,2.13
2022-08-03T01:55:29.428Z,1.70
2022-08-03T01:58:06.024Z,2.05
2022-08-03T02:00:35.068Z,2.20
2022-08-03T02:03:01.947Z,2.05
2022-08-03T02:05:29.283Z,1.92
2022-08-03T02:07:56.321Z,1.85
2022-08-03T02:10:30.974Z,1.55
2022-08-03T02:13:04.132Z,1.63
2022-08-03T02:15:31.694Z,1.65
2022-08-03T02:17:58.854Z,2.25
2022-08-03T02:20:25.786Z,1.83
2022-08-03T02:22:52.632Z,1.98
2022-08-03T02:25:19.268Z,1.85
2022-08-03T02:28:07.512Z,2.10
2022-08-03T02:30:40.601Z,1.90
2022-08-03T02:33:11.646Z,2.13
2022-08-03T02:35:40.134Z,1.50
2022-08-03T02:38:08.515Z,1.80
2022-08-03T02:40:36.168Z,1.40
2022-08-03T02:43:08.381Z,1.60
2022-08-03T02:45:36.715Z,2.40
2022-08-03T02:48:05.395Z,1.52
2022-08-03T02:50:33.999Z,1.90
2022-08-03T02:53:02.173Z,1.60
2022-08-03T02:55:29.300Z,2.20
2022-08-03T02:57:57.627Z,1.85
2022-08-03T03:00:29.856Z,1.90
2022-08-03T03:02:58.443Z,2.20
2022-08-03T03:05:55.557Z,2.00
2022-08-03T03:08:18.604Z,2.13
2022-08-03T03:10:46.512Z,2.45
2022-08-03T03:13:15.711Z,2.38
2022-08-03T03:15:44.006Z,2.63
2022-08-03T03:18:10.933Z,2.85
2022-08-03T03:20:39.513Z,3.25
2022-08-03T03:23:06.371Z,3.30
2022-08-03T03:25:33.304Z,3.45
2022-08-03T03:28:01.041Z,3.45
2022-08-03T03:30:31.289Z,3.95
2022-08-03T03:32:59.059Z,2.67
2022-08-03T03:35:27.734Z,3.30
2022-08-03T03:37:54.589Z,3.67
2022-08-03T03:40:22.277Z,3.20
2022-08-03T03:42:50.025Z,2.63
2022-08-03T03:45:16.813Z,3.05
2022-08-03T03:47:43.556Z,3.30
2022-08-03T03:50:11.153Z,3.42
2022-08-03T03:52:37.787Z,3.13
2022-08-03T03:55:04.632Z,2.65
2022-08-03T03:57:31.274Z,2.88
2022-08-03T03:59:58.014Z,2.95
2022-08-03T04:02:24.660Z,2.80
2022-08-03T04:05:10.446Z,2.90
2022-08-03T04:08:13.232Z,2.67
2022-08-03T04:10:59.008Z,2.42
2022-08-03T04:13:29.347Z,2.03
2022-08-03T04:15:59.762Z,2.38
2022-08-03T04:18:28.377Z,2.75
2022-08-03T04:20:59.597Z,2.53
2022-08-03T04:23:27.870Z,2.70
2022-08-03T04:25:54.946Z,2.42
2022-08-03T04:28:31.185Z,2.83
2022-08-03T04:31:02.654Z,2.65
2022-08-03T04:33:32.327Z,2.47
2022-08-03T04:36:02.879Z,2.22
2022-08-03T04:38:31.861Z,2.42
2022-08-03T04:40:59.830Z,2.20
2022-08-03T04:43:29.971Z,1.85
2022-08-03T04:45:57.238Z,2.70
2022-08-03T04:48:24.455Z,2.08
2022-08-03T04:50:51.361Z,2.10
2022-08-03T04:53:20.599Z,2.58
2022-08-03T04:55:48.265Z,1.92
2022-08-03T04:58:14.831Z,2.17
2022-08-03T05:00:42.418Z,1.95
2022-08-03T05:03:20.347Z,1.92
2022-08-03T05:06:01.828Z,2.22
2022-08-03T05:08:46.182Z,1.65
2022-08-03T05:11:18.260Z,1.92
2022-08-03T05:13:45.653Z,2.35
2022-08-03T05:16:13.945Z,1.90
2022-08-03T05:18:42.222Z,1.45
2022-08-03T05:21:14.254Z,1.58
2022-08-03T05:23:41.522Z,1.95
2022-08-03T05:26:08.225Z,2.45
2022-08-03T05:28:34.866Z,2.00
2022-08-03T05:31:01.496Z,1.75
2022-08-03T05:33:28.136Z,1.65
2022-08-03T05:35:55.737Z,1.50
2022-08-03T05:38:35.539Z,1.50
2022-08-03T05:41:21.710Z,1.70
2022-08-03T05:43:54.539Z,1.48
2022-08-03T05:46:22.530Z,2.05
2022-08-03T05:48:49.457Z,1.80
2022-08-03T05:51:19.166Z,1.65
2022-08-03T05:53:45.955Z,1.77
2022-08-03T05:56:13.731Z,1.60
2022-08-03T05:58:43.815Z,1.90
2022-08-03T06:01:10.715Z,1.77
2022-08-03T06:03:37.405Z,1.83
2022-08-03T06:06:04.134Z,1.73
2022-08-03T06:08:30.866Z,1.20
2022-08-03T06:10:57.509Z,1.40
2022-08-03T06:13:24.157Z,1.95
2022-08-03T06:15:50.867Z,1.98
2022-08-03T06:18:17.487Z,1.25
2022-08-03T06:20:44.278Z,1.60
2022-08-03T06:23:16.125Z,1.90
2022-08-03T06:25:44.821Z,1.40
2022-08-03T06:28:29.027Z,2.10
2022-08-03T06:30:59.497Z,1.90
2022-08-03T06:34:22.895Z,1.27
2022-08-03T06:36:13.343Z,1.80
2022-08-03T06:38:40.087Z,1.77
2022-08-03T06:41:06.735Z,1.58
2022-08-03T06:43:38.038Z,1.30
2022-08-03T06:46:24.577Z,1.98
2022-08-03T06:48:52.996Z,1.15
2022-08-03T06:51:19.713Z,1.48
2022-08-03T06:53:46.336Z,1.15
2022-08-03T06:56:13.072Z,1.55
2022-08-03T06:58:39.797Z,1.13
2022-08-03T07:01:06.637Z,1.13
2022-08-03T07:03:33.423Z,1.58
2022-08-03T07:06:00.032Z,1.23
2022-08-03T07:08:33.631Z,1.30
2022-08-03T07:11:01.293Z,1.10
2022-08-03T07:13:27.933Z,1.00
2022-08-03T07:15:56.052Z,1.75
2022-08-03T07:18:29.578Z,1.20
2022-08-03T07:20:57.772Z,1.40
2022-08-03T07:23:25.785Z,1.45
2022-08-03T07:25:52.684Z,1.25
2022-08-03T07:28:19.988Z,1.40
2022-08-03T07:30:47.310Z,1.50
2022-08-03T07:33:14.361Z,1.38
2022-08-03T07:35:41.289Z,1.20
2022-08-03T07:38:07.931Z,1.38
2022-08-03T07:40:34.972Z,1.60
2022-08-03T07:43:03.412Z,1.70
2022-08-03T07:45:35.628Z,1.10
2022-08-03T07:48:02.459Z,1.30
2022-08-03T07:50:29.099Z,1.05
2022-08-03T07:52:56.344Z,1.40
2022-08-03T07:55:25.646Z,1.30
2022-08-03T07:58:09.384Z,1.40
2022-08-03T08:00:36.655Z,1.40
2022-08-03T08:03:03.429Z,1.00
2022-08-03T08:05:30.349Z,1.35
2022-08-03T08:07:57.192Z,1.10
2022-08-03T08:10:24.224Z,1.20
2022-08-03T08:12:50.969Z,1.05
2022-08-03T08:15:17.716Z,1.10
2022-08-03T08:17:46.790Z,1.40
2022-08-03T08:20:27.054Z,1.42
2022-08-03T08:22:57.180Z,1.33
2022-08-03T08:25:25.238Z,0.95
2022-08-03T08:28:29.507Z,1.13
2022-08-03T08:30:39.094Z,1.27
2022-08-03T08:33:05.842Z,1.17
2022-08-03T08:35:32.603Z,1.25
2022-08-03T08:38:04.199Z,1.00
2022-08-03T08:40:32.729Z,1.10
2022-08-03T08:42:59.381Z,1.58
2022-08-03T08:45:26.616Z,1.23
2022-08-03T08:47:59.901Z,0.90
2022-08-03T08:50:28.924Z,1.30
2022-08-03T08:52:56.754Z,1.27
2022-08-03T08:55:24.055Z,1.23
2022-08-03T08:57:53.529Z,1.05
2022-08-03T09:00:20.148Z,1.02
2022-08-03T09:02:47.097Z,1.00
2022-08-03T09:05:15.794Z,1.10
2022-08-03T09:07:43.354Z,1.63
2022-08-03T09:10:15.119Z,1.48
2022-08-03T09:12:50.058Z,1.02
2022-08-03T09:15:31.518Z,1.50
2022-08-03T09:18:00.510Z,1.10
2022-08-03T09:20:29.613Z,1.23
2022-08-03T09:23:44.634Z,1.48
2022-08-03T09:26:00.006Z,1.48
2022-08-03T09:28:53.895Z,1.00
2022-08-03T09:31:29.793Z,1.35
2022-08-03T09:34:00.004Z,1.33
2022-08-03T09:36:54.013Z,1.05
2022-08-03T09:39:40.782Z,1.13
2022-08-03T09:42:15.012Z,1.15
2022-08-03T09:44:44.332Z,1.17
2022-08-03T09:47:12.263Z,0.73
2022-08-03T09:49:41.585Z,1.50
2022-08-03T09:52:37.873Z,1.02
2022-08-03T09:55:23.575Z,1.20
2022-08-03T09:58:06.914Z,1.33
2022-08-03T10:00:33.577Z,1.23
2022-08-03T10:03:05.519Z,1.20
2022-08-03T10:05:33.224Z,0.95
2022-08-03T10:07:59.813Z,1.10
2022-08-03T10:10:30.282Z,1.10
2022-08-03T10:12:57.936Z,1.67
2022-08-03T10:16:21.425Z,0.90
2022-08-03T10:18:11.571Z,1.25
2022-08-03T10:20:43.849Z,1.33
2022-08-03T10:23:11.094Z,1.65
2022-08-03T10:25:40.890Z,1.00
2022-08-03T10:28:08.372Z,0.90
2022-08-03T10:30:36.216Z,1.02
2022-08-03T10:33:05.747Z,1.85
2022-08-03T10:35:55.020Z,1.15
2022-08-03T10:38:25.522Z,0.75
2022-08-03T10:40:58.920Z,1.23
2022-08-03T10:43:34.795Z,1.30
2022-08-03T10:46:02.559Z,1.13
2022-08-03T10:48:29.888Z,1.23
2022-08-03T10:50:56.724Z,0.90
2022-08-03T10:53:54.209Z,1.10
2022-08-03T10:56:52.105Z,1.02
2022-08-03T10:59:27.963Z,1.25
2022-08-03T11:01:58.659Z,0.88
2022-08-03T11:04:29.562Z,0.90
2022-08-03T11:07:15.923Z,1.00
2022-08-03T11:09:50.226Z,0.90
2022-08-03T11:12:31.383Z,1.05
2022-08-03T11:15:07.309Z,0.90
2022-08-03T11:17:46.162Z,0.90
2022-08-03T11:20:46.211Z,0.75
2022-08-03T11:23:13.162Z,1.38
2022-08-03T11:26:17.508Z,1.15
2022-08-03T11:28:48.217Z,1.25
2022-08-03T11:31:47.248Z,1.00
2022-08-03T11:34:11.805Z,1.00
2022-08-03T11:37:16.240Z,1.00
2022-08-03T11:39:45.942Z,0.82
2022-08-03T11:42:24.799Z,0.77
2022-08-03T11:44:53.267Z,1.45
2022-08-03T11:47:24.159Z,1.00
2022-08-03T11:49:52.125Z,0.55
2022-08-03T11:52:27.153Z,0.90
2022-08-03T11:54:56.888Z,1.00
2022-08-03T11:59:17.241Z,0.77
2022-08-03T12:00:21.295Z,1.17
2022-08-03T12:03:03.052Z,1.40
2022-08-03T12:05:38.180Z,0.90
2022-08-03T12:08:07.115Z,1.13
2022-08-03T12:10:34.790Z,0.90
2022-08-03T12:13:02.521Z,0.90
2022-08-03T12:15:30.835Z,2.25
2022-08-03T12:17:58.279Z,1.20
2022-08-03T12:20:31.284Z,1.02
2022-08-03T12:23:05.895Z,1.15
2022-08-03T12:25:39.474Z,0.77
2022-08-03T12:28:36.562Z,0.98
2022-08-03T12:31:06.639Z,1.15
2022-08-03T12:33:56.259Z,1.05
2022-08-03T12:36:25.370Z,1.17
2022-08-03T12:38:57.294Z,0.98
2022-08-03T12:41:35.490Z,1.23
2022-08-03T12:44:07.813Z,1.00
2022-08-03T12:46:36.660Z,0.65
2022-08-03T12:49:15.423Z,1.00
2022-08-03T12:51:42.129Z,1.00
2022-08-03T12:54:09.891Z,0.82
2022-08-03T12:57:00.871Z,0.90
2022-08-03T12:59:32.536Z,1.20
2022-08-03T13:02:04.563Z,0.98
2022-08-03T13:04:36.599Z,0.88
2022-08-03T13:07:05.676Z,1.00
2022-08-03T13:09:50.206Z,0.90
2022-08-03T13:12:20.751Z,1.00
2022-08-03T13:14:49.281Z,1.02
2022-08-03T13:17:19.244Z,1.00
2022-08-03T13:19:46.804Z,1.40
2022-08-03T13:22:21.464Z,1.15
2022-08-03T13:24:50.967Z,0.88
2022-08-03T13:28:01.559Z,1.20
2022-08-03T13:30:05.253Z,1.17
2022-08-03T13:32:32.973Z,1.40
2022-08-03T13:34:59.641Z,1.15
2022-08-03T13:37:27.259Z,1.10
2022-08-03T13:39:58.768Z,1.00
2022-08-03T13:42:26.687Z,1.15
2022-08-03T13:44:53.325Z,1.40
2022-08-03T13:47:20.677Z,1.00
2022-08-03T13:49:54.284Z,0.95
2022-08-03T13:52:27.782Z,1.05
2022-08-03T13:54:54.574Z,1.27
2022-08-03T13:58:18.928Z,1.08
2022-08-03T14:00:08.789Z,1.10
2022-08-03T14:02:35.493Z,1.10
2022-08-03T14:05:02.290Z,1.23
2022-08-03T14:07:28.960Z,0.88
2022-08-03T14:09:55.646Z,1.30
2022-08-03T14:12:22.334Z,1.30
2022-08-03T14:14:48.988Z,2.17
2022-08-03T14:17:16.354Z,1.40
2022-08-03T14:19:52.943Z,1.10
2022-08-03T14:22:20.611Z,1.10
2022-08-03T14:24:47.246Z,1.10
2022-08-03T14:27:13.838Z,1.30
2022-08-03T14:29:40.486Z,1.30
2022-08-03T14:32:11.212Z,1.00
2022-08-03T14:34:39.611Z,1.08
2022-08-03T14:37:06.295Z,1.00
2022-08-03T14:42:20.765Z,1.10
2022-08-03T14:44:47.666Z,1.20
2022-08-03T14:47:14.747Z,1.55
2022-08-03T14:50:37.900Z,0.82
2022-08-03T14:52:28.476Z,0.98
2022-08-03T14:54:55.183Z,1.20
2022-08-03T14:57:22.156Z,1.20
2022-08-03T14:59:56.401Z,1.20
2022-08-03T15:02:25.106Z,1.35
2022-08-03T15:04:52.362Z,1.08
2022-08-03T15:07:19.383Z,1.55
2022-08-03T15:09:46.422Z,1.10
2022-08-03T15:12:13.164Z,1.02
2022-08-03T15:14:39.828Z,1.02
2022-08-03T15:17:07.162Z,1.05
2022-08-03T15:20:01.030Z,1.60
2022-08-03T15:22:25.461Z,1.42
2022-08-03T15:26:03.172Z,1.30
2022-08-03T15:28:02.687Z,1.50
2022-08-03T15:30:31.444Z,1.25
2022-08-03T15:32:58.108Z,1.25
2022-08-03T15:35:25.013Z,1.40
2022-08-03T15:37:51.604Z,1.27
2022-08-03T15:40:18.275Z,1.60
2022-08-03T15:42:44.898Z,1.38
2022-08-03T15:45:11.717Z,1.23
2022-08-03T15:47:39.748Z,1.20
2022-08-03T15:50:09.631Z,1.25
2022-08-03T15:52:36.549Z,1.23
2022-08-03T15:55:03.932Z,1.00
2022-08-03T15:57:30.640Z,1.38
2022-08-03T15:59:57.283Z,1.83
2022-08-03T16:02:23.923Z,1.20
2022-08-03T16:04:50.652Z,1.52
2022-08-03T16:07:37.339Z,1.17
2022-08-03T16:10:04.661Z,1.45
2022-08-03T16:12:31.247Z,1.30
2022-08-03T16:14:59.472Z,1.67
2022-08-03T16:17:26.202Z,1.40
2022-08-03T16:19:55.440Z,1.65
2022-08-03T16:22:22.988Z,1.50
2022-08-03T16:24:50.896Z,1.10
2022-08-03T16:27:37.304Z,1.00
2022-08-03T16:30:05.651Z,1.20
2022-08-03T16:32:32.451Z,1.23
2022-08-03T16:34:59.114Z,1.20
2022-08-03T16:37:41.459Z,1.30
2022-08-03T16:40:17.300Z,1.33
2022-08-03T16:42:49.130Z,1.05
2022-08-03T16:45:15.790Z,1.30
2022-08-03T16:47:42.452Z,1.40
2022-08-03T16:50:15.761Z,1.23
2022-08-03T16:52:47.051Z,1.17
2022-08-03T16:55:15.556Z,1.00
2022-08-03T16:57:58.730Z,1.40
2022-08-03T17:00:33.829Z,1.52
2022-08-03T17:03:04.135Z,1.33
2022-08-03T17:05:43.597Z,1.60
2022-08-03T17:08:13.600Z,1.30
2022-08-03T17:10:45.070Z,1.50
2022-08-03T17:13:21.431Z,1.35
2022-08-03T17:15:58.078Z,1.40
2022-08-03T17:18:34.904Z,1.40
2022-08-03T17:21:06.033Z,1.35
2022-08-03T17:23:51.038Z,1.38
2022-08-03T17:26:22.105Z,1.50
2022-08-03T17:28:57.636Z,1.42
2022-08-03T17:31:31.172Z,1.30
2022-08-03T17:34:00.839Z,1.35
2022-08-03T17:36:42.141Z,1.17
2022-08-03T17:39:16.601Z,1.17
2022-08-03T17:41:49.895Z,1.52
2022-08-03T17:44:31.954Z,1.58
2022-08-03T17:47:06.505Z,1.40
2022-08-03T17:49:40.077Z,1.25
2022-08-03T17:52:48.164Z,1.35
2022-08-03T17:55:57.276Z,1.42
2022-08-03T17:58:12.004Z,1.33
2022-08-03T18:01:04.019Z,1.70
2022-08-03T18:03:58.285Z,1.58
2022-08-03T18:06:31.041Z,2.33
2022-08-03T18:09:00.036Z,1.58
2022-08-03T18:11:35.905Z,1.75
2022-08-03T18:14:16.584Z,2.25
2022-08-03T18:16:53.141Z,2.10
2022-08-03T18:19:20.082Z,2.28
2022-08-03T18:22:06.691Z,2.00
2022-08-03T18:24:37.328Z,1.77
2022-08-03T18:27:06.549Z,2.33
2022-08-03T18:29:35.615Z,1.90
2022-08-03T18:32:06.083Z,1.70
2022-08-03T18:34:36.246Z,2.30
2022-08-03T18:37:08.557Z,2.08
2022-08-03T18:39:49.623Z,2.53
2022-08-03T18:42:19.637Z,2.20
2022-08-03T18:44:52.968Z,2.58
2022-08-03T18:47:52.202Z,2.47
2022-08-03T18:50:25.965Z,2.55
2022-08-03T18:53:19.756Z,2.38
2022-08-03T18:56:14.299Z,2.55
2022-08-03T18:58:53.853Z,2.28
2022-08-03T19:02:00.087Z,2.70
2022-08-03T19:04:25.253Z,2.40
2022-08-03T19:07:04.782Z,2.88
2022-08-03T19:09:46.876Z,2.40
2022-08-03T19:12:32.364Z,2.38
2022-08-03T19:15:10.603Z,2.30
2022-08-03T19:17:57.472Z,2.38
2022-08-03T19:20:27.425Z,2.40
2022-08-03T19:22:57.512Z,2.55
2022-08-03T19:25:34.256Z,2.20
2022-08-03T19:28:04.134Z,2.22
2022-08-03T19:30:39.091Z,2.47
2022-08-03T19:33:08.753Z,2.05
2022-08-03T19:35:55.182Z,1.98
2022-08-03T19:38:27.444Z,2.45
2022-08-03T19:40:59.581Z,2.65
2022-08-03T19:43:53.533Z,2.80
2022-08-03T19:46:30.958Z,2.35
2022-08-03T19:49:15.178Z,2.25
2022-08-03T19:52:01.313Z,2.38
2022-08-03T19:54:52.997Z,2.08
2022-08-03T19:57:23.747Z,2.67
2022-08-03T19:59:53.262Z,2.35
2022-08-03T20:02:26.265Z,2.67
2022-08-03T20:04:55.548Z,2.83
2022-08-03T20:07:23.006Z,2.45
2022-08-03T20:09:54.617Z,2.60
2022-08-03T20:12:28.246Z,2.45
2022-08-03T20:14:57.036Z,2.50
2022-08-03T20:17:54.032Z,2.25
2022-08-03T20:20:10.500Z,3.28
2022-08-03T20:22:40.965Z,2.45
2022-08-03T20:25:08.472Z,2.42
2022-08-03T20:28:07.013Z,2.03
2022-08-03T20:30:32.578Z,2.85
2022-08-03T20:32:59.367Z,2.15
2022-08-03T20:35:27.079Z,2.28
2022-08-03T20:37:54.735Z,2.60
2022-08-03T20:40:22.824Z,2.22
2022-08-03T20:42:55.485Z,2.33
2022-08-03T20:46:00.771Z,2.40
2022-08-03T20:48:13.051Z,2.33
2022-08-03T20:50:43.578Z,2.35
2022-08-03T20:53:12.153Z,2.72
2022-08-03T20:55:47.819Z,2.55
2022-08-03T20:58:26.225Z,2.47
2022-08-03T21:00:53.790Z,2.72
2022-08-03T21:03:20.412Z,2.58
2022-08-03T21:05:51.696Z,2.72
2022-08-03T21:08:22.564Z,2.60
2022-08-03T21:10:50.424Z,2.95
2022-08-03T21:13:25.113Z,3.28
2022-08-03T21:16:07.121Z,2.75
2022-08-03T21:18:49.892Z,2.13
2022-08-03T21:21:21.268Z,2.90
2022-08-03T21:23:53.746Z,3.13
2022-08-03T21:26:23.128Z,2.20
2022-08-03T21:28:50.962Z,2.47
2022-08-03T21:31:22.372Z,3.20
2022-08-03T21:33:54.108Z,2.78
2022-08-03T21:36:20.863Z,3.05
2022-08-03T21:38:56.325Z,3.13
2022-08-03T21:41:27.437Z,3.08
2022-08-03T21:43:54.282Z,2.55
2022-08-03T21:46:22.341Z,2.45
2022-08-03T21:48:54.624Z,2.92
2022-08-03T21:51:24.456Z,3.08
2022-08-03T21:54:03.812Z,2.53
2022-08-03T21:56:51.694Z,2.72
2022-08-03T21:59:20.213Z,2.50
2022-08-03T22:01:48.946Z,3.20
2022-08-03T22:04:45.908Z,3.60
2022-08-03T22:07:09.180Z,2.83
2022-08-03T22:09:36.737Z,3.10
2022-08-03T22:12:03.998Z,3.67
2022-08-03T22:14:33.219Z,3.47
2022-08-03T22:17:00.963Z,3.58
2022-08-03T22:19:33.012Z,3.67
2022-08-03T22:22:00.279Z,2.75
2022-08-03T22:24:29.675Z,4.03
2022-08-03T22:27:14.958Z,3.67
2022-08-03T22:29:42.539Z,3.80
2022-08-03T22:32:09.550Z,3.17
2022-08-03T22:34:37.333Z,3.78
2022-08-03T22:37:04.877Z,4.28
2022-08-03T22:39:32.442Z,4.25
2022-08-03T22:42:00.143Z,4.50
2022-08-03T22:44:27.959Z,4.53
2022-08-03T22:46:54.808Z,4.05
2022-08-03T22:49:22.597Z,4.30
2022-08-03T22:51:50.966Z,3.65
2022-08-03T22:54:17.810Z,3.95
2022-08-03T22:56:46.509Z,4.20
2022-08-03T22:59:39.153Z,4.53
2022-08-03T23:02:01.706Z,4.18
2022-08-03T23:04:42.637Z,4.03
2022-08-03T23:07:10.833Z,4.30
2022-08-03T23:09:37.968Z,4.15
2022-08-03T23:12:05.335Z,4.25
2022-08-03T23:14:38.821Z,3.88
2022-08-03T23:17:06.592Z,4.57
2022-08-03T23:19:34.462Z,4.10
2022-08-03T23:22:29.508Z,3.63
2022-08-03T23:24:58.243Z,3.88
2022-08-03T23:27:27.132Z,4.00
2022-08-03T23:29:54.095Z,4.70
2022-08-03T23:32:21.224Z,4.35
2022-08-03T23:35:07.525Z,4.30
2022-08-03T23:38:04.141Z,3.75
2022-08-03T23:40:24.843Z,4.78
2022-08-03T23:42:52.350Z,4.10
2022-08-03T23:45:20.411Z,4.63
2022-08-03T23:47:48.165Z,4.10
2022-08-03T23:50:15.310Z,4.10
2022-08-03T23:53:03.244Z,4.45
2022-08-03T23:55:50.730Z,4.45
2022-08-03T23:58:27.097Z,3.70
